Monitor, Washington
Current Conditions -  °F | °C
As of 11:38 PM on Friday 24 Oct 2014 (Local Time) from KEAT Reporting Station
Light Rain Light Rain  
Wind Chill: 45°   Ceiling: 400
Heat Index: 48°   Visibility: 4mi
Dew Point: 45°   Wind: 6mph
Humidity: 89%   Direction: 280°W
Pressure: 29.95"   Gusts: NA
Location:  47.49°N, 120.42°W
Report Text: KEAT 250638Z AUTO 28005KT 4SM -RA BR BKN004 OVC023 09/07 A2995 RMK AO2 P0001 T00890072
Loading
Personal Weather Stations






























Interactive Weather Map
Tropical Storm Tracking
New forecast layout! Learn more

10-Day Weather Forecast

Advertisements
Track Severe Weather on mobile